Terminal Aerodrome Forecast
Issued by NWS

Home | Current Version | Previous Version | Text Only | Print | Product List | Glossary On
Versions: 1 2 3 4 5 6 7 8 9 10 11 12 13 14 15 16 17 18 19 20
689
FTUS44 KMAF 081322 AAA
TAFHOB
TAF AMD
KHOB 081322Z 0813/0912 03011KT P6SM OVC030
      TEMPO 0813/0816 5SM -SN BR BKN020
     FM090100 11005KT P6SM OVC060
     FM090700 13005KT P6SM OVC020=

USA.gov is the U.S. government's official web portal to all federal, state and local government web resources and services.